createdAt,value
2022-11-24T00:00:30.528Z,74.07
2022-11-24T00:03:02.029Z,74.06
2022-11-24T00:05:38.668Z,73.68
2022-11-24T00:08:13.018Z,73.77
2022-11-24T00:10:44.757Z,73.77
2022-11-24T00:13:16.326Z,73.76
2022-11-24T00:15:47.331Z,73.54
2022-11-24T00:18:18.543Z,73.51
2022-11-24T00:20:51.485Z,73.57
2022-11-24T00:23:23.135Z,73.56
2022-11-24T00:25:54.493Z,73.65
2022-11-24T00:28:25.954Z,73.60
2022-11-24T00:30:57.329Z,73.55
2022-11-24T00:33:28.373Z,73.45
2022-11-24T00:36:00.592Z,73.52
2022-11-24T00:38:31.708Z,73.49
2022-11-24T00:41:03.881Z,73.57
2022-11-24T00:43:37.032Z,73.38
2022-11-24T00:46:08.774Z,73.16
2022-11-24T00:48:40.711Z,73.06
2022-11-24T00:51:15.055Z,72.98
2022-11-24T00:53:46.399Z,72.78
2022-11-24T00:56:18.008Z,72.86
2022-11-24T00:58:50.683Z,72.65
2022-11-24T01:01:24.019Z,72.60
2022-11-24T01:03:56.014Z,72.70
2022-11-24T01:06:28.124Z,72.54
2022-11-24T01:09:03.891Z,72.40
2022-11-24T01:11:54.602Z,72.49
2022-11-24T01:14:29.907Z,72.64
2022-11-24T01:17:01.143Z,72.62
2022-11-24T01:19:34.632Z,72.61
2022-11-24T01:22:06.484Z,72.43
2022-11-24T01:24:38.082Z,72.22
2022-11-24T01:27:09.789Z,72.18
2022-11-24T01:29:41.889Z,71.93
2022-11-24T01:32:13.474Z,71.88
2022-11-24T01:34:45.948Z,71.71
2022-11-24T01:37:19.701Z,71.11
2022-11-24T01:39:50.671Z,70.80
2022-11-24T01:42:22.695Z,70.57
2022-11-24T01:44:56.319Z,70.47
2022-11-24T01:47:31.978Z,70.48
2022-11-24T01:50:04.829Z,70.54
2022-11-24T01:52:37.841Z,70.47
2022-11-24T01:55:11.591Z,70.60
2022-11-24T01:57:47.925Z,70.54
2022-11-24T02:00:19.314Z,70.66
2022-11-24T02:02:51.035Z,70.80
2022-11-24T02:05:26.342Z,70.71
2022-11-24T02:07:59.848Z,70.81
2022-11-24T02:10:30.933Z,70.94
2022-11-24T02:13:02.343Z,71.00
2022-11-24T02:15:35.667Z,71.22
2022-11-24T02:18:08.458Z,71.29
2022-11-24T02:20:39.889Z,71.39
2022-11-24T02:23:13.796Z,71.35
2022-11-24T02:26:02.294Z,71.33
2022-11-24T02:28:34.646Z,71.39
2022-11-24T02:31:07.690Z,71.37
2022-11-24T02:33:39.556Z,71.22
2022-11-24T02:36:10.773Z,71.26
2022-11-24T02:38:42.458Z,71.22
2022-11-24T02:41:15.136Z,71.32
2022-11-24T02:43:48.950Z,71.38
2022-11-24T02:46:20.363Z,71.43
2022-11-24T02:48:52.078Z,71.51
2022-11-24T02:51:24.294Z,71.52
2022-11-24T02:53:58.070Z,71.58
2022-11-24T02:56:29.492Z,71.60
2022-11-24T02:59:00.747Z,71.61
2022-11-24T03:01:32.081Z,71.60
2022-11-24T03:04:04.851Z,71.56
2022-11-24T03:06:36.279Z,71.48
2022-11-24T03:09:10.882Z,71.53
2022-11-24T03:11:43.208Z,71.44
2022-11-24T03:14:18.532Z,71.45
2022-11-24T03:16:49.791Z,71.48
2022-11-24T03:19:21.033Z,71.38
2022-11-24T03:21:52.481Z,71.23
2022-11-24T03:24:24.909Z,71.26
2022-11-24T03:26:56.389Z,71.20
2022-11-24T03:29:29.235Z,71.10
2022-11-24T03:32:03.206Z,71.15
2022-11-24T03:34:35.292Z,71.18
2022-11-24T03:37:08.294Z,71.13
2022-11-24T03:39:43.056Z,70.91
2022-11-24T03:42:18.734Z,70.95
2022-11-24T03:44:50.435Z,71.05
2022-11-24T03:47:21.627Z,71.12
2022-11-24T03:50:00.529Z,71.24
2022-11-24T03:52:32.114Z,71.27
2022-11-24T03:55:04.167Z,71.24
2022-11-24T03:57:37.477Z,71.30
2022-11-24T04:00:09.626Z,71.32
2022-11-24T04:02:41.452Z,71.16
2022-11-24T04:05:13.581Z,71.15
2022-11-24T04:07:46.252Z,71.18
2022-11-24T04:10:19.180Z,71.21
2022-11-24T04:12:50.435Z,71.21
2022-11-24T04:15:22.483Z,71.23
2022-11-24T04:17:56.994Z,71.26
2022-11-24T04:20:29.409Z,71.34
2022-11-24T04:23:01.393Z,71.25
2022-11-24T04:25:33.363Z,71.12
2022-11-24T04:28:05.229Z,71.13
2022-11-24T04:30:38.793Z,71.17
2022-11-24T04:33:10.004Z,71.11
2022-11-24T04:35:41.244Z,71.10
2022-11-24T04:38:14.235Z,71.07
2022-11-24T04:40:59.521Z,71.05
2022-11-24T04:43:41.669Z,71.09
2022-11-24T04:46:13.519Z,71.15
2022-11-24T04:48:46.977Z,70.94
2022-11-24T04:51:23.194Z,70.65
2022-11-24T04:54:01.268Z,70.47
2022-11-24T04:56:34.184Z,70.53
2022-11-24T04:59:08.452Z,70.45
2022-11-24T05:01:38.886Z,70.63
2022-11-24T05:04:15.382Z,70.64
2022-11-24T05:06:49.095Z,70.68
2022-11-24T05:09:20.966Z,70.69
2022-11-24T05:11:54.563Z,70.73
2022-11-24T05:14:26.692Z,70.71
2022-11-24T05:17:01.580Z,70.74
2022-11-24T05:19:33.898Z,70.68
2022-11-24T05:22:09.412Z,70.65
2022-11-24T05:24:46.127Z,70.73
2022-11-24T05:27:18.446Z,70.76
2022-11-24T05:29:51.601Z,70.86
2022-11-24T05:32:22.955Z,70.94
2022-11-24T05:34:58.320Z,71.03
2022-11-24T05:37:33.857Z,70.95
2022-11-24T05:40:10.148Z,70.87
2022-11-24T05:42:47.220Z,70.84
2022-11-24T05:45:19.975Z,70.16
2022-11-24T05:47:57.151Z,69.86
2022-11-24T05:50:28.429Z,69.44
2022-11-24T05:53:03.223Z,69.39
2022-11-24T05:55:36.599Z,69.11
2022-11-24T05:58:09.912Z,69.13
2022-11-24T06:00:50.762Z,68.57
2022-11-24T06:03:24.060Z,68.32
2022-11-24T06:06:00.469Z,68.45
2022-11-24T06:08:33.034Z,68.54
2022-11-24T06:11:19.602Z,68.36
2022-11-24T06:13:52.287Z,68.54
2022-11-24T06:16:26.534Z,68.67
2022-11-24T06:19:11.981Z,68.73
2022-11-24T06:21:44.029Z,68.93
2022-11-24T06:24:16.022Z,69.05
2022-11-24T06:26:47.975Z,69.17
2022-11-24T06:29:21.422Z,69.24
2022-11-24T06:31:54.464Z,69.24
2022-11-24T06:34:28.889Z,69.35
2022-11-24T06:37:00.500Z,69.42
2022-11-24T06:39:32.526Z,69.37
2022-11-24T06:42:04.570Z,69.22
2022-11-24T06:44:40.025Z,69.22
2022-11-24T06:47:16.303Z,69.15
2022-11-24T06:49:48.203Z,69.06
2022-11-24T06:52:28.135Z,69.08
2022-11-24T06:55:07.120Z,68.88
2022-11-24T06:57:40.226Z,68.89
2022-11-24T07:00:12.565Z,68.75
2022-11-24T07:02:46.356Z,68.63
2022-11-24T07:05:17.981Z,68.48
2022-11-24T07:07:50.926Z,68.29
2022-11-24T07:10:24.340Z,68.15
2022-11-24T07:12:57.375Z,67.97
2022-11-24T07:15:30.986Z,67.98
2022-11-24T07:18:04.472Z,67.70
2022-11-24T07:20:37.901Z,67.61
2022-11-24T07:23:10.097Z,67.43
2022-11-24T07:25:41.452Z,67.15
2022-11-24T07:28:12.782Z,67.09
2022-11-24T07:30:44.650Z,66.12
2022-11-24T07:33:18.547Z,66.31
2022-11-24T07:35:50.644Z,66.05
2022-11-24T07:38:22.269Z,66.26
2022-11-24T07:40:54.146Z,66.30
2022-11-24T07:43:58.987Z,66.05
2022-11-24T07:46:38.109Z,65.50
2022-11-24T07:49:10.085Z,65.27
2022-11-24T07:51:43.624Z,65.60
2022-11-24T07:54:14.980Z,65.27
2022-11-24T07:56:48.300Z,64.47
2022-11-24T07:59:19.673Z,64.39
2022-11-24T08:01:51.801Z,63.75
2022-11-24T08:04:23.915Z,64.02
2022-11-24T08:06:55.569Z,64.29
2022-11-24T08:09:28.868Z,64.53
2022-11-24T08:11:59.836Z,65.13
2022-11-24T08:14:30.668Z,65.60
2022-11-24T08:17:01.795Z,65.17
2022-11-24T08:19:33.124Z,65.02
2022-11-24T08:22:04.287Z,64.46
2022-11-24T08:24:35.962Z,64.26
2022-11-24T08:27:07.783Z,64.20
2022-11-24T08:29:41.668Z,64.62
2022-11-24T08:32:18.840Z,64.74
2022-11-24T08:34:46.718Z,64.98
2022-11-24T08:37:17.948Z,64.74
2022-11-24T08:39:49.084Z,64.82
2022-11-24T08:42:20.023Z,65.01
2022-11-24T08:44:58.688Z,65.11
2022-11-24T08:47:24.352Z,64.99
2022-11-24T08:49:55.779Z,64.65
2022-11-24T08:52:27.121Z,64.36
2022-11-24T08:54:58.315Z,64.01
2022-11-24T08:57:30.023Z,62.97
2022-11-24T09:00:01.074Z,63.83
2022-11-24T09:02:33.681Z,64.14
2022-11-24T09:05:17.426Z,64.23
2022-11-24T09:07:38.563Z,64.33
2022-11-24T09:10:10.038Z,64.16
2022-11-24T09:12:42.332Z,64.33
2022-11-24T09:15:15.136Z,64.42
2022-11-24T09:17:46.744Z,64.30
2022-11-24T09:20:17.690Z,64.25
2022-11-24T09:22:49.714Z,64.20
2022-11-24T09:25:21.310Z,64.22
2022-11-24T09:27:54.634Z,64.26
2022-11-24T09:30:26.112Z,64.25
2022-11-24T09:32:57.541Z,64.07
2022-11-24T09:35:28.478Z,63.75
2022-11-24T09:38:00.325Z,63.43
2022-11-24T09:40:33.347Z,63.06
2022-11-24T09:43:06.491Z,62.91
2022-11-24T09:46:04.421Z,62.70
2022-11-24T09:48:15.047Z,62.75
2022-11-24T09:50:47.266Z,62.78
2022-11-24T09:53:19.698Z,62.32
2022-11-24T09:55:51.498Z,62.39
2022-11-24T09:58:31.134Z,63.12
2022-11-24T10:01:05.893Z,63.56
2022-11-24T10:03:42.617Z,63.64
2022-11-24T10:06:34.445Z,63.26
2022-11-24T10:09:09.763Z,63.48
2022-11-24T10:11:42.292Z,63.64
2022-11-24T10:14:31.338Z,63.74
2022-11-24T10:17:09.715Z,63.71
2022-11-24T10:19:48.368Z,63.74
2022-11-24T10:22:29.927Z,63.75
2022-11-24T10:25:02.284Z,63.54
2022-11-24T10:27:37.816Z,63.64
2022-11-24T10:30:10.721Z,63.63
2022-11-24T10:32:43.299Z,63.47
2022-11-24T10:35:15.881Z,63.20
2022-11-24T10:37:54.442Z,63.57
2022-11-24T10:40:57.063Z,63.17
2022-11-24T10:43:15.434Z,62.81
2022-11-24T10:45:46.454Z,63.05
2022-11-24T10:48:21.688Z,63.30
2022-11-24T10:50:55.262Z,63.47
2022-11-24T10:53:27.809Z,63.35
2022-11-24T10:56:00.238Z,63.46
2022-11-24T10:58:37.757Z,63.05
2022-11-24T11:01:16.820Z,63.18
2022-11-24T11:03:49.119Z,62.61
2022-11-24T11:06:24.441Z,62.69
2022-11-24T11:09:11.842Z,62.76
2022-11-24T11:11:43.936Z,62.91
2022-11-24T11:14:16.620Z,62.78
2022-11-24T11:16:50.949Z,62.88
2022-11-24T11:19:48.908Z,63.01
2022-11-24T11:22:15.226Z,63.09
2022-11-24T11:24:48.281Z,63.23
2022-11-24T11:27:20.899Z,63.09
2022-11-24T11:35:01.224Z,63.54
2022-11-24T11:37:33.942Z,63.54
2022-11-24T11:40:06.945Z,63.54
2022-11-24T11:43:01.359Z,63.04
2022-11-24T11:45:17.688Z,62.94
2022-11-24T11:47:53.392Z,63.15
2022-11-24T11:50:29.254Z,63.36
2022-11-24T11:53:14.215Z,63.68
2022-11-24T11:55:52.359Z,63.35
2022-11-24T11:58:41.109Z,63.11
2022-11-24T12:01:18.267Z,63.30
2022-11-24T12:03:56.742Z,63.38
2022-11-24T12:06:29.971Z,63.55
2022-11-24T12:09:20.347Z,63.72
2022-11-24T12:11:47.039Z,63.92
2022-11-24T12:14:19.691Z,63.99
2022-11-24T12:17:08.654Z,64.04
2022-11-24T12:19:57.511Z,64.12
2022-11-24T12:22:41.680Z,64.24
2022-11-24T12:25:14.122Z,64.35
2022-11-24T12:27:47.693Z,64.40
2022-11-24T12:30:20.051Z,64.40
2022-11-24T12:33:01.254Z,64.50
2022-11-24T12:35:36.622Z,64.66
2022-11-24T12:38:11.680Z,64.70
2022-11-24T12:43:35.585Z,64.76
2022-11-24T12:46:11.189Z,64.87
2022-11-24T12:48:48.111Z,64.89
2022-11-24T12:51:21.182Z,64.92
2022-11-24T12:53:53.937Z,64.92
2022-11-24T12:56:26.782Z,64.96
2022-11-24T12:58:59.387Z,65.04
2022-11-24T13:01:34.965Z,64.93
2022-11-24T13:04:07.981Z,65.05
2022-11-24T13:06:49.133Z,65.10
2022-11-24T13:09:16.855Z,65.21
2022-11-24T13:11:49.380Z,65.12
2022-11-24T13:14:25.052Z,65.17
2022-11-24T13:19:35.567Z,65.30
2022-11-24T13:22:10.753Z,65.37
2022-11-24T13:24:42.353Z,65.38
2022-11-24T13:27:16.716Z,65.44
2022-11-24T13:29:52.572Z,65.42
2022-11-24T13:32:26.747Z,65.36
2022-11-24T13:35:00.000Z,65.25
2022-11-24T13:37:35.547Z,64.93
2022-11-24T13:40:14.400Z,65.07
2022-11-24T13:43:00.436Z,65.08
2022-11-24T13:45:43.843Z,65.06
2022-11-24T13:48:22.978Z,65.14
2022-11-24T13:50:56.190Z,65.10
2022-11-24T13:53:37.718Z,65.18
2022-11-24T13:56:16.840Z,65.28
2022-11-24T13:58:49.459Z,65.30
2022-11-24T14:01:21.563Z,65.29
2022-11-24T14:06:37.618Z,65.32
2022-11-24T14:09:10.451Z,65.40
2022-11-24T14:11:42.117Z,65.52
2022-11-24T14:14:20.622Z,65.39
2022-11-24T14:16:50.921Z,65.38
2022-11-24T14:19:23.548Z,65.40
2022-11-24T14:21:56.793Z,65.55
2022-11-24T14:24:31.017Z,65.63
2022-11-24T14:27:02.348Z,65.61
2022-11-24T14:29:35.893Z,65.67
2022-11-24T14:32:08.906Z,65.58
2022-11-24T14:34:41.289Z,65.28
2022-11-24T14:37:13.012Z,65.42
2022-11-24T14:39:43.862Z,65.50
2022-11-24T14:42:19.359Z,65.57
2022-11-24T14:44:58.896Z,65.60
2022-11-24T14:47:33.412Z,65.68
2022-11-24T14:50:15.132Z,65.76
2022-11-24T14:52:47.914Z,65.82
2022-11-24T14:55:26.828Z,65.83
2022-11-24T14:57:59.818Z,65.63
2022-11-24T15:00:32.320Z,65.66
2022-11-24T15:03:05.018Z,65.68
2022-11-24T15:05:52.971Z,65.68
2022-11-24T15:08:29.935Z,65.64
2022-11-24T15:11:03.182Z,65.66
2022-11-24T15:13:38.339Z,65.73
2022-11-24T15:16:10.621Z,65.59
2022-11-24T15:18:46.058Z,65.51
2022-11-24T15:21:19.520Z,65.53
2022-11-24T15:24:09.297Z,65.63
2022-11-24T15:26:42.382Z,65.58
2022-11-24T15:29:14.141Z,65.64
2022-11-24T15:31:50.831Z,65.73
2022-11-24T15:34:18.087Z,65.81
2022-11-24T15:36:50.875Z,65.69
2022-11-24T15:39:22.349Z,65.69
2022-11-24T15:41:53.253Z,65.74
2022-11-24T15:44:24.281Z,65.76
2022-11-24T15:46:55.554Z,65.92
2022-11-24T15:49:26.729Z,65.88
2022-11-24T15:51:58.283Z,65.87
2022-11-24T15:54:29.682Z,65.71
2022-11-24T15:57:00.575Z,65.82
2022-11-24T15:59:32.470Z,65.86
2022-11-24T16:02:04.465Z,65.92
2022-11-24T16:04:35.715Z,65.97
2022-11-24T16:07:07.644Z,66.03
2022-11-24T16:09:38.741Z,66.00
2022-11-24T16:12:10.314Z,66.08
2022-11-24T16:14:41.987Z,66.13
2022-11-24T16:17:13.768Z,66.03
2022-11-24T16:19:44.743Z,66.00
2022-11-24T16:22:15.569Z,66.05
2022-11-24T16:24:46.411Z,66.08
2022-11-24T16:27:17.469Z,66.14
2022-11-24T16:29:48.627Z,66.18
2022-11-24T16:32:19.934Z,65.89
2022-11-24T16:34:51.176Z,65.94
2022-11-24T16:37:22.793Z,66.00
2022-11-24T16:39:54.447Z,66.07
2022-11-24T16:42:26.441Z,66.01
2022-11-24T16:44:57.495Z,65.90
2022-11-24T16:47:28.343Z,65.97
2022-11-24T16:49:59.357Z,66.02
2022-11-24T16:52:32.422Z,65.98
2022-11-24T16:55:04.233Z,66.00
2022-11-24T16:57:36.208Z,65.87
2022-11-24T17:00:07.750Z,66.00
2022-11-24T17:02:40.216Z,66.00
2022-11-24T17:05:20.334Z,66.08
2022-11-24T17:07:51.257Z,66.17
2022-11-24T17:10:22.418Z,66.35
2022-11-24T17:12:53.439Z,66.54
2022-11-24T17:15:33.691Z,66.37
2022-11-24T17:18:23.036Z,66.51
2022-11-24T17:20:31.225Z,66.22
2022-11-24T17:23:02.283Z,66.08
2022-11-24T17:25:33.516Z,66.06
2022-11-24T17:28:05.080Z,65.98
2022-11-24T17:30:38.203Z,66.01
2022-11-24T17:33:09.316Z,65.87
2022-11-24T17:35:40.456Z,65.85
2022-11-24T17:38:11.743Z,65.67
2022-11-24T17:40:44.538Z,65.85
2022-11-24T17:43:15.566Z,65.92
2022-11-24T17:45:49.839Z,66.04
2022-11-24T17:48:20.735Z,66.05
2022-11-24T17:51:04.922Z,66.19
2022-11-24T17:53:39.285Z,66.27
2022-11-24T17:56:12.136Z,66.35
2022-11-24T17:58:43.520Z,66.61
2022-11-24T18:01:14.700Z,66.70
2022-11-24T18:03:48.993Z,66.72
2022-11-24T18:06:19.271Z,66.74
2022-11-24T18:08:50.365Z,66.65
2022-11-24T18:11:27.331Z,66.74
2022-11-24T18:14:00.239Z,66.63
2022-11-24T18:16:30.723Z,66.63
2022-11-24T18:19:10.877Z,66.66
2022-11-24T18:21:35.650Z,66.66
2022-11-24T18:24:06.960Z,66.70
2022-11-24T18:26:38.062Z,66.74
2022-11-24T18:29:09.907Z,66.81
2022-11-24T18:31:41.400Z,66.81
2022-11-24T18:34:12.345Z,66.85
2022-11-24T18:36:44.685Z,66.87
2022-11-24T18:39:17.202Z,66.88
2022-11-24T18:41:48.068Z,66.81
2022-11-24T18:44:19.399Z,66.84
2022-11-24T18:46:50.312Z,66.76
2022-11-24T18:49:21.629Z,66.86
2022-11-24T18:51:52.986Z,66.97
2022-11-24T18:54:23.705Z,67.03
2022-11-24T18:56:58.903Z,66.95
2022-11-24T18:59:27.326Z,66.86
2022-11-24T19:01:58.248Z,66.89
2022-11-24T19:04:29.301Z,66.80
2022-11-24T19:07:00.255Z,66.65
2022-11-24T19:09:31.521Z,66.60
2022-11-24T19:12:04.111Z,66.71
2022-11-24T19:14:36.162Z,66.81
2022-11-24T19:17:07.214Z,66.87
2022-11-24T19:19:39.807Z,67.08
2022-11-24T19:22:10.518Z,67.11
2022-11-24T19:24:41.786Z,67.06
2022-11-24T19:27:12.946Z,66.89
2022-11-24T19:29:44.181Z,66.84
2022-11-24T19:32:15.521Z,66.84
2022-11-24T19:34:46.802Z,66.89
2022-11-24T19:37:17.706Z,66.92
2022-11-24T19:39:48.803Z,66.91
2022-11-24T19:42:19.657Z,66.90
2022-11-24T19:44:56.212Z,66.87
2022-11-24T19:47:23.090Z,66.61
2022-11-24T19:49:54.210Z,66.46
2022-11-24T19:52:25.208Z,66.47
2022-11-24T19:54:56.196Z,66.38
2022-11-24T19:57:26.955Z,66.45
2022-11-24T19:59:58.201Z,66.39
2022-11-24T20:02:29.958Z,66.43
2022-11-24T20:05:00.880Z,66.40
2022-11-24T20:07:32.242Z,66.32
2022-11-24T20:10:07.719Z,66.32
2022-11-24T20:12:36.010Z,66.26
2022-11-24T20:15:07.343Z,66.14
2022-11-24T20:17:38.406Z,66.27
2022-11-24T20:20:09.376Z,66.32
2022-11-24T20:22:40.722Z,66.26
2022-11-24T20:25:11.635Z,66.18
2022-11-24T20:27:42.808Z,65.93
2022-11-24T20:30:13.588Z,65.92
2022-11-24T20:32:44.355Z,65.88
2022-11-24T20:35:18.353Z,65.96
2022-11-24T20:40:35.749Z,66.23
2022-11-24T20:43:06.711Z,66.26
2022-11-24T20:45:38.009Z,66.37
2022-11-24T20:48:08.979Z,66.45
2022-11-24T20:50:39.851Z,66.46
2022-11-24T20:53:10.589Z,66.08
2022-11-24T20:55:42.388Z,66.13
2022-11-24T20:58:13.610Z,66.19
2022-11-24T21:00:44.547Z,66.28
2022-11-24T21:03:15.902Z,66.38
2022-11-24T21:05:46.700Z,66.56
2022-11-24T21:08:19.097Z,66.55
2022-11-24T21:10:59.636Z,66.56
2022-11-24T21:13:32.201Z,66.60
2022-11-24T21:16:04.434Z,66.49
2022-11-24T21:18:35.339Z,66.48
2022-11-24T21:21:06.154Z,66.51
2022-11-24T21:23:37.443Z,66.57
2022-11-24T21:26:14.854Z,66.63
2022-11-24T21:28:41.978Z,66.68
2022-11-24T21:31:14.030Z,66.74
2022-11-24T21:33:46.389Z,66.74
2022-11-24T21:36:18.703Z,66.83
2022-11-24T21:38:53.160Z,66.73
2022-11-24T21:41:24.880Z,66.72
2022-11-24T21:43:56.162Z,66.82
2022-11-24T21:46:28.912Z,66.79
2022-11-24T21:48:59.946Z,66.75
2022-11-24T21:51:30.701Z,66.77
2022-11-24T21:54:01.492Z,66.80
2022-11-24T21:56:32.287Z,66.76
2022-11-24T21:59:03.289Z,66.72
2022-11-24T22:01:34.152Z,66.73
2022-11-24T22:04:05.153Z,66.77
2022-11-24T22:06:36.209Z,66.83
2022-11-24T22:09:06.925Z,66.88
2022-11-24T22:11:37.934Z,66.90
2022-11-24T22:14:10.950Z,66.91
2022-11-24T22:16:41.983Z,66.92
2022-11-24T22:19:13.168Z,66.96
2022-11-24T22:21:44.482Z,66.95
2022-11-24T22:24:15.787Z,67.03
2022-11-24T22:26:46.827Z,67.08
2022-11-24T22:29:17.734Z,67.08
2022-11-24T22:31:48.991Z,67.14
2022-11-24T22:34:19.836Z,67.12
2022-11-24T22:36:50.544Z,67.05
2022-11-24T22:39:21.639Z,67.00
2022-11-24T22:41:53.979Z,67.01
2022-11-24T22:44:24.787Z,67.04
2022-11-24T22:46:56.169Z,66.87
2022-11-24T22:49:28.412Z,66.90
2022-11-24T22:51:59.300Z,66.87
2022-11-24T22:54:30.083Z,66.86
2022-11-24T22:57:01.115Z,66.91
2022-11-24T22:59:31.923Z,66.95
2022-11-24T23:02:02.701Z,66.94
2022-11-24T23:04:33.822Z,66.84
2022-11-24T23:07:05.114Z,66.87
2022-11-24T23:09:35.945Z,66.94
2022-11-24T23:12:06.888Z,67.00
2022-11-24T23:14:37.831Z,67.08
2022-11-24T23:17:08.766Z,67.13
2022-11-24T23:19:39.932Z,67.17
2022-11-24T23:22:10.768Z,67.23
2022-11-24T23:24:41.948Z,67.22
2022-11-24T23:27:12.782Z,67.18
2022-11-24T23:29:44.107Z,67.15
2022-11-24T23:32:14.932Z,67.14
2022-11-24T23:34:45.980Z,67.15
2022-11-24T23:37:16.866Z,67.10
2022-11-24T23:39:48.328Z,67.08
2022-11-24T23:42:19.414Z,67.07
2022-11-24T23:44:50.520Z,67.05
2022-11-24T23:47:21.434Z,67.00
2022-11-24T23:49:52.276Z,66.93
2022-11-24T23:52:23.126Z,66.94
2022-11-24T23:57:42.210Z,66.98
